createdAt,value
2023-05-05T00:02:09.368Z,8.43
2023-05-05T00:04:36.809Z,7.15
2023-05-05T00:07:03.897Z,7.75
2023-05-05T00:09:31.136Z,7.15
2023-05-05T00:11:58.226Z,7.30
2023-05-05T00:14:25.516Z,6.68
2023-05-05T00:16:52.673Z,7.30
2023-05-05T00:19:19.900Z,7.53
2023-05-05T00:21:46.977Z,7.25
2023-05-05T00:24:14.066Z,7.32
2023-05-05T00:26:41.177Z,7.50
2023-05-05T00:29:11.476Z,7.50
2023-05-05T00:31:38.840Z,7.15
2023-05-05T00:34:06.516Z,7.95
2023-05-05T00:36:33.730Z,7.85
2023-05-05T00:39:01.273Z,7.20
2023-05-05T00:41:28.331Z,6.63
2023-05-05T00:43:55.526Z,6.45
2023-05-05T00:46:27.259Z,6.53
2023-05-05T00:48:54.946Z,6.47
2023-05-05T00:51:24.081Z,6.97
2023-05-05T00:53:51.825Z,6.25
2023-05-05T00:56:21.964Z,6.15
2023-05-05T00:58:49.871Z,6.32
2023-05-05T01:01:18.222Z,6.03
2023-05-05T01:03:45.734Z,6.22
2023-05-05T01:06:18.498Z,5.97
2023-05-05T01:09:02.186Z,7.20
2023-05-05T01:11:56.796Z,5.85
2023-05-05T01:14:36.092Z,5.30
2023-05-05T01:17:26.370Z,5.28
2023-05-05T01:20:06.028Z,5.30
2023-05-05T01:22:45.963Z,5.55
2023-05-05T01:25:44.947Z,4.50
2023-05-05T01:28:24.196Z,4.50
2023-05-05T01:31:23.714Z,4.85
2023-05-05T01:33:58.522Z,4.40
2023-05-05T01:36:32.966Z,4.32
2023-05-05T01:39:02.598Z,3.92
2023-05-05T01:41:41.268Z,4.65
2023-05-05T01:44:11.272Z,3.83
2023-05-05T01:46:38.564Z,4.05
2023-05-05T01:49:10.179Z,3.78
2023-05-05T01:51:39.111Z,3.45
2023-05-05T01:54:08.682Z,3.58
2023-05-05T01:56:39.481Z,3.15
2023-05-05T01:59:07.549Z,3.28
2023-05-05T02:01:39.681Z,3.28
2023-05-05T02:04:10.045Z,3.00
2023-05-05T02:06:39.603Z,2.92
2023-05-05T02:09:11.856Z,3.30
2023-05-05T02:11:40.853Z,2.60
2023-05-05T02:14:09.484Z,2.80
2023-05-05T02:16:38.802Z,3.20
2023-05-05T02:19:06.456Z,2.92
2023-05-05T02:21:34.534Z,3.45
2023-05-05T02:24:02.358Z,3.10
2023-05-05T02:26:34.019Z,3.28
2023-05-05T02:29:17.020Z,3.83
2023-05-05T02:31:53.583Z,3.95
2023-05-05T02:34:27.757Z,3.80
2023-05-05T02:36:58.893Z,4.57
2023-05-05T02:39:46.136Z,4.53
2023-05-05T02:42:22.036Z,4.30
2023-05-05T02:44:53.984Z,4.80
2023-05-05T02:47:21.548Z,4.00
2023-05-05T02:49:51.592Z,4.55
2023-05-05T02:52:18.814Z,4.55
2023-05-05T02:54:46.623Z,4.35
2023-05-05T02:57:20.916Z,4.28
2023-05-05T03:00:20.943Z,4.05
2023-05-05T03:03:16.614Z,3.97
2023-05-05T03:06:05.579Z,4.25
2023-05-05T03:08:44.401Z,4.55
2023-05-05T03:11:21.857Z,3.97
2023-05-05T03:13:55.456Z,3.60
2023-05-05T03:16:26.654Z,3.70
2023-05-05T03:18:55.667Z,3.22
2023-05-05T03:21:23.888Z,3.55
2023-05-05T03:23:51.208Z,3.33
2023-05-05T03:26:20.845Z,2.92
2023-05-05T03:28:48.115Z,3.50
2023-05-05T03:31:28.532Z,3.60
2023-05-05T03:33:58.891Z,3.27
2023-05-05T03:36:30.532Z,3.20
2023-05-05T03:38:59.012Z,3.80
2023-05-05T03:41:30.296Z,3.80
2023-05-05T03:43:57.472Z,3.63
2023-05-05T03:46:25.385Z,4.22
2023-05-05T03:48:57.216Z,4.07
2023-05-05T03:53:54.804Z,3.78
2023-05-05T03:56:22.606Z,4.30
2023-05-05T03:58:51.855Z,4.40
2023-05-05T04:01:18.964Z,3.92
2023-05-05T04:03:46.350Z,4.35
2023-05-05T04:06:13.542Z,4.00
2023-05-05T04:08:41.635Z,3.80
2023-05-05T04:11:08.729Z,4.00
2023-05-05T04:13:36.872Z,4.05
2023-05-05T04:16:04.398Z,4.18
2023-05-05T04:18:31.963Z,4.40
2023-05-05T04:20:59.558Z,4.22
2023-05-05T04:23:26.843Z,4.63
2023-05-05T04:25:54.117Z,4.90
2023-05-05T04:28:22.193Z,4.88
2023-05-05T04:30:49.687Z,4.78
2023-05-05T04:33:16.869Z,4.80
2023-05-05T04:35:45.127Z,4.10
2023-05-05T04:38:12.848Z,4.40
2023-05-05T04:40:43.788Z,4.20
2023-05-05T04:43:11.576Z,4.90
2023-05-05T04:45:39.090Z,4.22
2023-05-05T04:48:06.832Z,4.43
2023-05-05T04:50:34.163Z,4.43
2023-05-05T04:53:01.168Z,4.82
2023-05-05T04:55:28.670Z,4.68
2023-05-05T04:57:55.842Z,4.95
2023-05-05T05:00:24.301Z,4.70
2023-05-05T05:02:52.739Z,5.25
2023-05-05T05:05:20.048Z,5.00
2023-05-05T05:07:47.268Z,4.22
2023-05-05T05:10:14.973Z,4.15
2023-05-05T05:12:42.223Z,4.28
2023-05-05T05:15:10.190Z,2.95
2023-05-05T05:17:37.441Z,3.75
2023-05-05T05:20:06.406Z,3.88
2023-05-05T05:22:35.061Z,3.47
2023-05-05T05:25:03.241Z,3.20
2023-05-05T05:27:30.783Z,5.35
2023-05-05T05:29:58.411Z,5.13
2023-05-05T05:32:26.554Z,4.72
2023-05-05T05:34:53.795Z,4.22
2023-05-05T05:37:21.658Z,3.97
2023-05-05T05:39:52.446Z,4.03
2023-05-05T05:42:21.368Z,4.05
2023-05-05T05:44:48.928Z,3.75
2023-05-05T05:47:16.199Z,5.07
2023-05-05T05:49:43.500Z,4.53
2023-05-05T05:52:11.269Z,4.90
2023-05-05T05:54:39.327Z,5.07
2023-05-05T05:57:07.538Z,4.90
2023-05-05T05:59:34.639Z,4.63
2023-05-05T06:02:02.270Z,4.80
2023-05-05T06:04:31.094Z,6.40
2023-05-05T06:06:59.093Z,4.80
2023-05-05T06:09:26.297Z,5.00
2023-05-05T06:11:54.826Z,4.47
2023-05-05T06:14:21.858Z,4.88
2023-05-05T06:16:49.107Z,5.22
2023-05-05T06:19:19.608Z,5.75
2023-05-05T06:21:46.848Z,5.50
2023-05-05T06:24:14.016Z,4.82
2023-05-05T06:26:41.908Z,4.75
2023-05-05T06:29:10.509Z,4.78
2023-05-05T06:31:39.385Z,4.38
2023-05-05T06:34:06.514Z,4.13
2023-05-05T06:36:33.617Z,3.97
2023-05-05T06:39:00.730Z,4.70
2023-05-05T06:41:28.200Z,4.50
2023-05-05T06:43:55.255Z,3.80
2023-05-05T06:46:22.428Z,3.78
2023-05-05T06:48:49.619Z,4.18
2023-05-05T06:51:16.824Z,4.13
2023-05-05T06:53:43.899Z,4.15
2023-05-05T06:56:11.701Z,5.10
2023-05-05T06:58:38.720Z,4.57
2023-05-05T07:01:06.061Z,4.80
2023-05-05T07:03:33.209Z,4.43
2023-05-05T07:06:00.564Z,4.38
2023-05-05T07:08:27.607Z,4.18
2023-05-05T07:10:54.679Z,3.97
2023-05-05T07:13:21.799Z,3.75
2023-05-05T07:15:49.728Z,4.10
2023-05-05T07:18:17.354Z,3.83
2023-05-05T07:20:44.851Z,3.85
2023-05-05T07:23:12.010Z,3.90
2023-05-05T07:25:39.310Z,3.47
2023-05-05T07:28:06.704Z,4.32
2023-05-05T07:30:33.775Z,3.30
2023-05-05T07:33:00.814Z,2.30
2023-05-05T07:35:28.026Z,2.10
2023-05-05T07:37:55.026Z,3.10
2023-05-05T07:40:22.357Z,2.78
2023-05-05T07:42:49.387Z,2.28
2023-05-05T07:45:16.480Z,2.47
2023-05-05T07:47:43.628Z,1.88
2023-05-05T07:50:11.507Z,2.15
2023-05-05T07:52:48.446Z,2.20
2023-05-05T07:55:21.193Z,2.22
2023-05-05T07:57:49.784Z,2.17
2023-05-05T08:00:19.629Z,2.30
2023-05-05T08:02:48.089Z,2.05
2023-05-05T08:05:15.537Z,2.60
2023-05-05T08:07:42.853Z,2.28
2023-05-05T08:10:12.172Z,2.38
2023-05-05T08:12:41.581Z,2.65
2023-05-05T08:15:09.175Z,2.80
2023-05-05T08:17:56.311Z,2.72
2023-05-05T08:20:28.624Z,3.35
2023-05-05T08:22:55.830Z,3.85
2023-05-05T08:25:22.983Z,3.63
2023-05-05T08:27:50.070Z,3.88
2023-05-05T08:30:20.989Z,4.15
2023-05-05T08:32:48.443Z,3.35
2023-05-05T08:35:15.494Z,3.15
2023-05-05T08:37:42.714Z,3.33
2023-05-05T08:40:14.307Z,3.53
2023-05-05T08:42:42.299Z,3.50
2023-05-05T08:45:11.109Z,3.45
2023-05-05T08:47:39.450Z,3.38
2023-05-05T08:50:10.265Z,3.67
2023-05-05T08:52:44.559Z,4.50
2023-05-05T08:55:27.473Z,4.97
2023-05-05T08:58:01.231Z,4.32
2023-05-05T09:00:28.814Z,5.07
2023-05-05T09:03:01.634Z,4.68
2023-05-05T09:05:29.268Z,4.60
2023-05-05T09:07:56.559Z,5.18
2023-05-05T09:10:24.922Z,5.35
2023-05-05T09:12:52.166Z,7.55
2023-05-05T09:15:19.309Z,5.97
2023-05-05T09:17:47.244Z,6.43
2023-05-05T09:20:15.228Z,5.40
2023-05-05T09:22:47.374Z,5.70
2023-05-05T09:25:16.488Z,5.27
2023-05-05T09:27:50.345Z,4.30
2023-05-05T09:30:25.100Z,4.22
2023-05-05T09:32:54.826Z,4.32
2023-05-05T09:35:23.412Z,4.20
2023-05-05T09:37:50.630Z,4.18
2023-05-05T09:40:19.527Z,4.00
2023-05-05T09:42:47.550Z,4.40
2023-05-05T09:45:17.820Z,4.15
2023-05-05T09:47:49.473Z,4.10
2023-05-05T09:50:19.026Z,4.38
2023-05-05T09:52:56.443Z,4.07
2023-05-05T09:55:24.292Z,4.28
2023-05-05T09:57:51.975Z,4.97
2023-05-05T10:00:19.596Z,4.28
2023-05-05T10:02:47.396Z,4.32
2023-05-05T10:05:19.079Z,4.00
2023-05-05T10:07:47.892Z,3.92
2023-05-05T10:10:17.374Z,3.83
2023-05-05T10:12:47.674Z,3.85
2023-05-05T10:15:16.233Z,3.92
2023-05-05T10:18:05.128Z,3.90
2023-05-05T10:20:38.344Z,4.13
2023-05-05T10:23:08.448Z,3.42
2023-05-05T10:25:42.725Z,3.70
2023-05-05T10:28:16.202Z,3.50
2023-05-05T10:30:48.922Z,3.80
2023-05-05T10:36:01.464Z,3.50
2023-05-05T10:38:31.293Z,3.38
2023-05-05T10:41:04.530Z,3.17
2023-05-05T10:43:32.217Z,3.40
2023-05-05T10:46:00.036Z,3.40
2023-05-05T10:48:46.216Z,3.05
2023-05-05T10:51:42.176Z,4.07
2023-05-05T10:54:23.451Z,4.13
2023-05-05T10:56:51.893Z,3.35
2023-05-05T10:59:52.192Z,3.60
2023-05-05T11:02:20.786Z,3.75
2023-05-05T11:05:21.622Z,4.30
2023-05-05T11:07:51.038Z,3.65
2023-05-05T11:10:23.900Z,3.85
2023-05-05T11:15:30.625Z,3.90
2023-05-05T11:17:59.664Z,4.45
2023-05-05T11:20:36.993Z,4.50
2023-05-05T11:23:04.654Z,4.57
2023-05-05T11:25:35.538Z,4.60
2023-05-05T11:28:14.550Z,4.65
2023-05-05T11:30:57.930Z,5.13
2023-05-05T11:33:31.085Z,5.43
2023-05-05T11:36:07.331Z,4.35
2023-05-05T11:39:05.857Z,4.78
2023-05-05T11:41:33.064Z,4.32
2023-05-05T11:44:35.996Z,4.78
2023-05-05T11:47:06.171Z,4.90
2023-05-05T11:49:35.172Z,3.65
2023-05-05T11:52:03.407Z,3.85
2023-05-05T11:54:31.601Z,4.60
2023-05-05T11:57:02.202Z,4.50
2023-05-05T11:59:29.450Z,5.45
2023-05-05T12:01:56.848Z,4.70
2023-05-05T12:04:24.469Z,4.85
2023-05-05T12:06:51.818Z,4.70
2023-05-05T12:09:24.145Z,5.22
2023-05-05T12:11:59.844Z,5.10
2023-05-05T12:14:27.830Z,4.45
2023-05-05T12:17:11.141Z,4.80
2023-05-05T12:19:45.520Z,4.78
2023-05-05T12:22:22.409Z,4.70
2023-05-05T12:25:01.522Z,5.15
2023-05-05T12:27:29.139Z,5.25
2023-05-05T12:29:58.266Z,5.18
2023-05-05T12:32:28.189Z,5.10
2023-05-05T12:34:57.644Z,5.03
2023-05-05T12:37:26.558Z,4.55
2023-05-05T12:39:56.862Z,5.13
2023-05-05T12:42:24.360Z,4.65
2023-05-05T12:44:51.649Z,4.68
2023-05-05T12:47:32.827Z,4.78
2023-05-05T12:50:00.930Z,4.72
2023-05-05T12:52:45.285Z,4.70
2023-05-05T12:55:13.278Z,4.85
2023-05-05T12:58:00.666Z,4.25
2023-05-05T13:00:29.433Z,4.10
2023-05-05T13:02:57.086Z,4.53
2023-05-05T13:05:36.516Z,4.63
2023-05-05T13:08:04.048Z,5.00
2023-05-05T13:10:31.635Z,5.18
2023-05-05T13:12:59.070Z,4.28
2023-05-05T13:15:26.422Z,4.70
2023-05-05T13:18:03.107Z,5.07
2023-05-05T13:20:30.334Z,4.78
2023-05-05T13:22:57.651Z,5.10
2023-05-05T13:25:24.697Z,4.97
2023-05-05T13:27:52.207Z,4.88
2023-05-05T13:30:20.777Z,5.15
2023-05-05T13:32:48.163Z,4.97
2023-05-05T13:35:16.565Z,5.57
2023-05-05T13:37:44.593Z,5.13
2023-05-05T13:40:13.546Z,4.43
2023-05-05T13:42:40.719Z,4.93
2023-05-05T13:45:08.508Z,4.28
2023-05-05T13:47:35.827Z,5.30
2023-05-05T13:50:02.968Z,4.50
2023-05-05T13:52:31.805Z,5.38
2023-05-05T13:55:01.174Z,5.18
2023-05-05T13:57:28.413Z,5.03
2023-05-05T13:59:55.602Z,4.53
2023-05-05T14:02:22.837Z,4.80
2023-05-05T14:04:49.953Z,4.82
2023-05-05T14:07:17.129Z,5.47
2023-05-05T14:09:44.264Z,4.82
2023-05-05T14:12:11.288Z,5.25
2023-05-05T14:14:38.460Z,4.78
2023-05-05T14:17:06.012Z,4.68
2023-05-05T14:19:33.607Z,5.43
2023-05-05T14:22:00.721Z,4.45
2023-05-05T14:24:27.740Z,5.82
2023-05-05T14:26:54.845Z,5.55
2023-05-05T14:29:21.970Z,5.80
2023-05-05T14:31:48.974Z,5.15
2023-05-05T14:34:16.162Z,6.53
2023-05-05T14:36:43.158Z,5.85
2023-05-05T14:39:10.293Z,5.68
2023-05-05T14:41:37.423Z,5.55
2023-05-05T14:44:04.605Z,5.13
2023-05-05T14:46:32.217Z,5.25
2023-05-05T14:48:59.408Z,5.65
2023-05-05T14:51:26.739Z,5.80
2023-05-05T14:53:53.742Z,6.38
2023-05-05T14:56:22.899Z,5.45
2023-05-05T14:58:50.225Z,5.30
2023-05-05T15:01:17.489Z,6.03
2023-05-05T15:03:44.734Z,5.38
2023-05-05T15:06:11.844Z,5.95
2023-05-05T15:08:41.705Z,6.03
2023-05-05T15:11:08.872Z,5.25
2023-05-05T15:13:38.653Z,5.35
2023-05-05T15:16:06.902Z,5.15
2023-05-05T15:18:34.424Z,5.00
2023-05-05T15:21:01.652Z,5.20
2023-05-05T15:23:30.225Z,5.13
2023-05-05T15:25:57.326Z,5.20
2023-05-05T15:28:24.460Z,4.78
2023-05-05T15:30:51.509Z,4.88
2023-05-05T15:33:18.731Z,5.32
2023-05-05T15:35:46.078Z,5.18
2023-05-05T15:38:13.195Z,5.80
2023-05-05T15:40:41.421Z,5.65
2023-05-05T15:43:08.854Z,5.07
2023-05-05T15:45:36.586Z,5.43
2023-05-05T15:48:03.723Z,5.80
2023-05-05T15:50:31.143Z,5.47
2023-05-05T15:52:58.996Z,5.75
2023-05-05T15:55:26.547Z,5.78
2023-05-05T15:57:54.259Z,5.43
2023-05-05T16:00:21.808Z,5.38
2023-05-05T16:02:48.910Z,5.43
2023-05-05T16:05:16.135Z,5.68
2023-05-05T16:07:43.204Z,5.80
2023-05-05T16:10:10.845Z,5.82
2023-05-05T16:12:38.413Z,5.55
2023-05-05T16:15:06.371Z,5.80
2023-05-05T16:17:33.581Z,5.60
2023-05-05T16:20:00.870Z,5.05
2023-05-05T16:22:27.908Z,5.63
2023-05-05T16:24:55.083Z,4.95
2023-05-05T16:27:22.398Z,5.82
2023-05-05T16:29:49.412Z,5.43
2023-05-05T16:32:16.584Z,5.70
2023-05-05T16:34:43.657Z,5.50
2023-05-05T16:37:11.065Z,5.97
2023-05-05T16:39:40.432Z,6.35
2023-05-05T16:42:07.586Z,5.22
2023-05-05T16:44:34.842Z,5.30
2023-05-05T16:47:01.851Z,5.55
2023-05-05T16:49:29.015Z,5.25
2023-05-05T16:51:57.387Z,5.57
2023-05-05T16:54:24.738Z,5.97
2023-05-05T16:56:52.476Z,5.72
2023-05-05T16:59:19.631Z,6.05
2023-05-05T17:01:47.089Z,6.18
2023-05-05T17:04:14.349Z,6.85
2023-05-05T17:06:41.601Z,6.47
2023-05-05T17:09:08.879Z,6.85
2023-05-05T17:11:36.301Z,7.50
2023-05-05T17:14:03.457Z,7.07
2023-05-05T17:16:31.344Z,6.75
2023-05-05T17:18:58.581Z,6.55
2023-05-05T17:21:27.051Z,6.82
2023-05-05T17:23:54.223Z,6.07
2023-05-05T17:26:21.384Z,5.80
2023-05-05T17:28:48.466Z,7.47
2023-05-05T17:31:16.202Z,6.43
2023-05-05T17:33:43.313Z,7.05
2023-05-05T17:36:10.694Z,6.40
2023-05-05T17:38:37.925Z,6.47
2023-05-05T17:41:05.062Z,6.95
2023-05-05T17:43:32.295Z,6.88
2023-05-05T17:45:59.393Z,6.63
2023-05-05T17:48:26.821Z,6.60
2023-05-05T17:50:54.058Z,6.43
2023-05-05T17:53:21.653Z,5.70
2023-05-05T17:55:48.689Z,6.05
2023-05-05T17:58:15.829Z,5.50
2023-05-05T18:00:42.830Z,5.88
2023-05-05T18:03:10.180Z,6.07
2023-05-05T18:05:37.495Z,5.45
2023-05-05T18:08:04.836Z,5.68
2023-05-05T18:10:32.178Z,7.05
2023-05-05T18:12:59.366Z,6.30
2023-05-05T18:15:26.639Z,6.15
2023-05-05T18:17:54.104Z,6.25
2023-05-05T18:20:21.235Z,6.63
2023-05-05T18:22:49.112Z,5.97
2023-05-05T18:25:16.303Z,6.65
2023-05-05T18:27:44.122Z,6.18
2023-05-05T18:30:11.841Z,6.65
2023-05-05T18:32:39.049Z,5.97
2023-05-05T18:35:07.415Z,6.32
2023-05-05T18:37:34.841Z,6.07
2023-05-05T18:40:01.901Z,5.35
2023-05-05T18:42:29.131Z,6.30
2023-05-05T18:44:56.201Z,5.20
2023-05-05T18:47:23.728Z,5.63
2023-05-05T18:49:50.909Z,5.75
2023-05-05T18:52:17.957Z,5.78
2023-05-05T18:54:45.168Z,5.43
2023-05-05T18:57:12.322Z,6.38
2023-05-05T18:59:39.358Z,6.20
2023-05-05T19:02:08.141Z,5.97
2023-05-05T19:04:38.193Z,7.10
2023-05-05T19:07:05.514Z,6.97
2023-05-05T19:09:32.920Z,6.53
2023-05-05T19:12:00.167Z,6.22
2023-05-05T19:14:27.354Z,6.35
2023-05-05T19:16:56.135Z,6.68
2023-05-05T19:19:23.981Z,5.95
2023-05-05T19:21:52.244Z,7.75
2023-05-05T19:24:19.543Z,6.68
2023-05-05T19:26:46.904Z,9.88
2023-05-05T19:29:14.286Z,9.55
2023-05-05T19:31:41.846Z,9.57
2023-05-05T19:34:09.095Z,10.52
2023-05-05T19:36:37.384Z,11.85
2023-05-05T19:39:05.225Z,9.50
2023-05-05T19:41:35.299Z,8.10
2023-05-05T19:44:03.209Z,9.32
2023-05-05T19:46:30.503Z,10.10
2023-05-05T19:48:58.109Z,9.80
2023-05-05T19:51:25.780Z,10.23
2023-05-05T19:53:53.310Z,10.02
2023-05-05T19:56:22.210Z,10.52
2023-05-05T19:58:57.853Z,10.68
2023-05-05T20:01:26.072Z,11.85
2023-05-05T20:03:54.941Z,10.38
2023-05-05T20:06:23.207Z,12.07
2023-05-05T20:08:50.892Z,10.75
2023-05-05T20:11:18.377Z,10.00
2023-05-05T20:13:45.806Z,8.52
2023-05-05T20:16:13.886Z,9.48
2023-05-05T20:18:41.102Z,8.32
2023-05-05T20:21:08.309Z,9.77
2023-05-05T20:23:35.645Z,9.70
2023-05-05T20:26:02.831Z,9.88
2023-05-05T20:28:31.889Z,9.30
2023-05-05T20:31:00.902Z,9.02
2023-05-05T20:33:29.231Z,9.75
2023-05-05T20:35:56.818Z,8.85
2023-05-05T20:38:24.258Z,9.27
2023-05-05T20:40:52.534Z,9.63
2023-05-05T20:43:19.859Z,10.70
2023-05-05T20:45:47.304Z,9.27
2023-05-05T20:48:14.507Z,9.55
2023-05-05T20:50:43.231Z,9.98
2023-05-05T20:53:13.907Z,10.10
2023-05-05T20:55:41.602Z,10.73
2023-05-05T20:58:08.734Z,9.52
2023-05-05T21:00:36.245Z,10.07
2023-05-05T21:03:04.452Z,9.77
2023-05-05T21:05:31.837Z,9.65
2023-05-05T21:08:00.795Z,10.02
2023-05-05T21:10:33.189Z,10.07
2023-05-05T21:13:01.995Z,10.38
2023-05-05T21:15:29.468Z,9.38
2023-05-05T21:17:57.346Z,10.35
2023-05-05T21:20:24.583Z,9.75
2023-05-05T21:22:51.891Z,9.80
2023-05-05T21:25:21.108Z,10.60
2023-05-05T21:27:49.119Z,9.77
2023-05-05T21:30:17.308Z,10.23
2023-05-05T21:32:45.247Z,9.52
2023-05-05T21:35:12.526Z,10.13
2023-05-05T21:37:40.306Z,9.60
2023-05-05T21:40:13.773Z,9.95
2023-05-05T21:42:42.548Z,10.80
2023-05-05T21:45:11.765Z,10.05
2023-05-05T21:47:39.103Z,8.75
2023-05-05T21:50:07.034Z,9.35
2023-05-05T21:52:34.427Z,10.68
2023-05-05T21:55:01.568Z,10.30
2023-05-05T21:57:28.694Z,9.75
2023-05-05T21:59:55.922Z,10.70
2023-05-05T22:02:23.427Z,10.80
2023-05-05T22:04:53.744Z,12.10
2023-05-05T22:07:21.201Z,12.93
2023-05-05T22:09:48.357Z,12.10
2023-05-05T22:12:15.751Z,11.20
2023-05-05T22:14:42.790Z,12.82
2023-05-05T22:17:09.950Z,12.00
2023-05-05T22:19:36.990Z,12.02
2023-05-05T22:22:04.145Z,10.85
2023-05-05T22:24:31.246Z,9.38
2023-05-05T22:26:58.489Z,10.30
2023-05-05T22:29:25.732Z,10.45
2023-05-05T22:31:52.927Z,9.27
2023-05-05T22:34:22.169Z,9.98
2023-05-05T22:36:50.043Z,9.77
2023-05-05T22:39:18.727Z,9.65
2023-05-05T22:41:46.279Z,10.13
2023-05-05T22:44:13.409Z,11.07
2023-05-05T22:46:41.073Z,10.57
2023-05-05T22:49:08.886Z,12.27
2023-05-05T22:51:36.003Z,11.00
2023-05-05T22:54:03.337Z,13.18
2023-05-05T22:56:30.383Z,13.25
2023-05-05T22:58:57.642Z,11.75
2023-05-05T23:01:24.749Z,11.60
2023-05-05T23:03:52.022Z,13.13
2023-05-05T23:06:19.165Z,12.48
2023-05-05T23:08:46.383Z,10.75
2023-05-05T23:11:13.594Z,12.07
2023-05-05T23:13:40.818Z,12.10
2023-05-05T23:16:08.586Z,12.35
2023-05-05T23:18:36.505Z,13.07
2023-05-05T23:21:03.923Z,11.25
2023-05-05T23:23:32.447Z,10.45
2023-05-05T23:25:59.507Z,11.65
2023-05-05T23:28:26.694Z,10.35
2023-05-05T23:30:53.786Z,10.75
2023-05-05T23:33:20.976Z,12.30
2023-05-05T23:35:48.188Z,12.00
2023-05-05T23:38:15.348Z,12.73
2023-05-05T23:40:42.454Z,11.18
2023-05-05T23:43:09.846Z,11.55
2023-05-05T23:45:36.888Z,12.57
2023-05-05T23:48:04.365Z,12.65
2023-05-05T23:50:31.474Z,12.70
2023-05-05T23:52:58.914Z,13.32
2023-05-05T23:55:26.148Z,12.20
2023-05-05T23:57:53.519Z,12.88
